KHPN

Westchester County Airport

White Plains, New York, USA
METAR KHPN 271156Z 08009KT 5SM -RA BR BKN006 OVC065 16/15 A3000 RMK AO2 SLP155 P0002 60004 70004 T01610150 10222 20161 50025
Observed Flight Rules
May-27 @ 11:56 UTC (9 minutes ago) Instrument Flight Rules
Wind Visibility Clouds Conditions
80° at 9 knots 5 miles
  • Broken at 600' AGL
  • Overcast at 6,500' AGL
  • Light Rain
  • Mist
Temperatures Readings Precipitation
Current 16°C / 61°F
Dewpoint 15°C / 59°F
Humidity 94%
Altimeter 30" Hg
Pressure 1015.5 hPa
Elevation 121
Current Rain 0.02
METAR KHPN 271156Z 08009KT 5SM -RA BR BKN006 OVC065 16/15 A3000 RMK AO2 SLP155 P0002 60004 70004 T01610150 10222 20161 50025
Observed Flight Rules
May-27 @ 11:56 UTC
(9 minutes ago)
IFR
Wind Visibility
80° at 9 knots 5 miles
Clouds
  • Broken at 600' AGL
  • Overcast at 6,500' AGL
Conditions
  • Light Rain
  • Mist
Temperature Dewpoint
16°C / 61°F 15°C / 59°F
Humidity Altimeter Pressure
94% 30" Hg 1015.5 hPa
Current Rain
0.02